createdAt,value
2018-04-16T00:00:41.197Z,16.30
2018-04-16T00:03:10.213Z,16.30
2018-04-16T00:05:38.481Z,16.20
2018-04-16T00:08:06.737Z,16.40
2018-04-16T00:10:36.744Z,16.10
2018-04-16T00:13:04.948Z,16.10
2018-04-16T00:15:33.964Z,16.00
2018-04-16T00:18:02.204Z,16.10
2018-04-16T00:20:30.470Z,16.40
2018-04-16T00:22:58.713Z,16.10
2018-04-16T00:25:26.952Z,16.00
2018-04-16T00:27:55.984Z,16.10
2018-04-16T00:30:24.363Z,16.20
2018-04-16T00:32:58.329Z,16.10
2018-04-16T00:35:32.225Z,15.80
2018-04-16T00:38:06.305Z,15.80
2018-04-16T00:40:42.040Z,16.10
2018-04-16T00:43:31.753Z,16.20
2018-04-16T00:46:05.674Z,15.90
2018-04-16T00:48:39.918Z,15.70
2018-04-16T00:51:14.711Z,16.00
2018-04-16T00:54:00.878Z,15.80
2018-04-16T00:56:34.777Z,15.90
2018-04-16T00:59:09.099Z,15.60
2018-04-16T01:01:43.225Z,15.80
2018-04-16T01:04:17.220Z,15.60
2018-04-16T01:06:51.198Z,15.80
2018-04-16T01:09:25.838Z,15.50
2018-04-16T01:11:59.720Z,15.80
2018-04-16T01:14:33.677Z,15.70
2018-04-16T01:17:20.334Z,15.60
2018-04-16T01:19:54.224Z,15.40
2018-04-16T01:22:29.840Z,15.80
2018-04-16T01:25:03.840Z,15.50
2018-04-16T01:27:37.750Z,15.60
2018-04-16T01:30:11.663Z,15.40
2018-04-16T01:32:45.657Z,15.60
2018-04-16T01:35:20.255Z,15.50
2018-04-16T01:37:54.200Z,15.30
2018-04-16T01:40:28.270Z,15.20
2018-04-16T01:43:02.092Z,15.40
2018-04-16T01:45:37.003Z,15.30
2018-04-16T01:48:11.015Z,15.50
2018-04-16T01:50:44.960Z,15.10
2018-04-16T01:53:19.931Z,15.40
2018-04-16T01:55:54.045Z,15.20
2018-04-16T01:58:28.128Z,15.30
2018-04-16T02:01:02.880Z,15.10
2018-04-16T02:03:36.960Z,15.30
2018-04-16T02:06:11.856Z,15.50
2018-04-16T02:08:45.780Z,15.20
2018-04-16T02:11:20.429Z,15.40
2018-04-16T02:13:54.447Z,15.50
2018-04-16T02:16:28.541Z,15.30
2018-04-16T02:19:03.367Z,15.30
2018-04-16T02:21:37.276Z,15.00
2018-04-16T02:24:11.201Z,15.30
2018-04-16T02:26:45.064Z,15.00
2018-04-16T02:29:19.134Z,15.00
2018-04-16T02:31:53.297Z,15.00
2018-04-16T02:34:27.226Z,15.20
2018-04-16T02:37:16.954Z,15.10
2018-04-16T02:39:50.845Z,15.00
2018-04-16T02:42:24.708Z,15.10
2018-04-16T02:44:58.764Z,15.20
2018-04-16T02:47:47.727Z,15.10
2018-04-16T02:50:22.569Z,15.00
2018-04-16T02:52:56.632Z,15.10
2018-04-16T02:55:30.696Z,15.10
2018-04-16T02:58:04.798Z,14.90
2018-04-16T03:00:38.890Z,14.90
2018-04-16T03:03:12.904Z,15.00
2018-04-16T03:05:46.780Z,15.00
2018-04-16T03:08:20.830Z,15.00
2018-04-16T03:10:54.784Z,14.80
2018-04-16T03:13:28.718Z,15.00
2018-04-16T03:16:03.604Z,14.90
2018-04-16T03:18:37.742Z,15.30
2018-04-16T03:21:11.682Z,15.20
2018-04-16T03:23:46.245Z,15.10
2018-04-16T03:26:21.414Z,15.00
2018-04-16T03:28:55.553Z,15.20
2018-04-16T03:31:30.462Z,14.90
2018-04-16T03:34:04.426Z,15.00
2018-04-16T03:36:38.412Z,15.10
2018-04-16T03:39:13.170Z,15.00
2018-04-16T03:41:47.172Z,15.10
2018-04-16T03:44:21.325Z,15.00
2018-04-16T03:46:55.179Z,14.90
2018-04-16T03:49:30.756Z,14.90
2018-04-16T03:52:13.704Z,14.90
2018-04-16T03:54:42.711Z,14.80
2018-04-16T03:57:10.952Z,15.10
2018-04-16T03:59:39.181Z,14.90
2018-04-16T04:02:08.208Z,14.70
2018-04-16T04:04:37.313Z,14.80
2018-04-16T04:07:06.397Z,14.50
2018-04-16T04:09:35.440Z,14.60
2018-04-16T04:12:03.736Z,14.50
2018-04-16T04:14:31.962Z,14.50
2018-04-16T04:17:00.226Z,14.50
2018-04-16T04:19:29.325Z,14.60
2018-04-16T04:21:58.342Z,14.50
2018-04-16T04:24:38.614Z,14.50
2018-04-16T04:27:19.691Z,14.20
2018-04-16T04:30:00.007Z,14.60
2018-04-16T04:32:29.136Z,14.10
2018-04-16T04:34:57.480Z,14.40
2018-04-16T04:37:26.476Z,14.10
2018-04-16T04:39:55.515Z,14.20
2018-04-16T04:42:23.765Z,14.60
2018-04-16T04:44:52.069Z,14.40
2018-04-16T04:47:20.325Z,14.20
2018-04-16T04:49:49.360Z,14.00
2018-04-16T04:52:17.717Z,14.10
2018-04-16T04:54:45.986Z,14.30
2018-04-16T04:57:15.018Z,14.10
2018-04-16T04:59:43.251Z,14.30
2018-04-16T05:02:12.285Z,14.50
2018-04-16T05:04:40.541Z,14.40
2018-04-16T05:07:09.560Z,14.40
2018-04-16T05:09:37.800Z,14.30
2018-04-16T05:12:06.832Z,14.30
2018-04-16T05:14:35.084Z,14.40
2018-04-16T05:17:04.176Z,14.60
2018-04-16T05:19:32.447Z,14.40
2018-04-16T05:22:00.778Z,14.40
2018-04-16T05:24:29.023Z,14.30
2018-04-16T05:26:58.079Z,14.40
2018-04-16T05:29:26.389Z,14.70
2018-04-16T05:31:54.773Z,14.60
2018-04-16T05:34:23.015Z,15.00
2018-04-16T05:36:51.285Z,14.60
2018-04-16T05:39:19.603Z,14.50
2018-04-16T05:41:47.839Z,14.90
2018-04-16T05:44:16.237Z,14.90
2018-04-16T05:46:44.486Z,15.00
2018-04-16T05:49:13.547Z,14.80
2018-04-16T05:51:41.810Z,14.90
2018-04-16T05:54:10.052Z,15.10
2018-04-16T05:56:38.310Z,14.80
2018-04-16T05:59:06.594Z,15.10
2018-04-16T06:01:35.599Z,15.00
2018-04-16T06:04:04.668Z,15.00
2018-04-16T06:06:33.739Z,15.00
2018-04-16T06:09:01.968Z,15.10
2018-04-16T06:11:30.216Z,15.00
2018-04-16T06:13:58.520Z,15.20
2018-04-16T06:16:27.549Z,15.40
2018-04-16T06:18:55.840Z,15.20
2018-04-16T06:21:24.075Z,15.40
2018-04-16T06:23:53.213Z,15.30
2018-04-16T06:26:21.565Z,15.10
2018-04-16T06:28:50.617Z,15.60
2018-04-16T06:31:18.870Z,15.40
2018-04-16T06:33:47.128Z,15.60
2018-04-16T06:36:16.319Z,15.70
2018-04-16T06:38:44.619Z,15.80
2018-04-16T06:41:12.896Z,15.70
2018-04-16T06:43:41.359Z,15.90
2018-04-16T06:46:09.610Z,15.90
2018-04-16T06:48:37.962Z,16.10
2018-04-16T06:51:07.212Z,16.60
2018-04-16T06:53:36.289Z,16.10
2018-04-16T06:56:04.549Z,16.20
2018-04-16T06:58:32.806Z,16.50
2018-04-16T07:01:01.907Z,16.60
2018-04-16T07:03:30.167Z,16.80
2018-04-16T07:05:58.442Z,16.80
2018-04-16T07:08:26.682Z,16.70
2018-04-16T07:10:55.802Z,16.40
2018-04-16T07:13:24.098Z,16.20
2018-04-16T07:15:52.329Z,16.30
2018-04-16T07:18:20.590Z,16.20
2018-04-16T07:20:48.835Z,16.10
2018-04-16T07:23:17.076Z,16.50
2018-04-16T07:25:46.247Z,16.50
2018-04-16T07:28:15.286Z,16.80
2018-04-16T07:30:43.599Z,16.70
2018-04-16T07:33:11.832Z,16.90
2018-04-16T07:35:40.095Z,16.90
2018-04-16T07:38:08.364Z,16.90
2018-04-16T07:40:37.412Z,16.70
2018-04-16T07:43:05.640Z,16.50
2018-04-16T07:45:34.648Z,16.80
2018-04-16T07:48:02.925Z,16.70
2018-04-16T07:50:31.962Z,16.60
2018-04-16T07:53:00.275Z,16.60
2018-04-16T07:55:29.105Z,16.80
2018-04-16T07:57:58.056Z,16.80
2018-04-16T08:00:26.324Z,16.90
2018-04-16T08:02:54.630Z,16.80
2018-04-16T08:05:22.887Z,16.80
2018-04-16T08:07:51.260Z,17.20
2018-04-16T08:10:19.494Z,17.10
2018-04-16T08:12:48.513Z,17.30
2018-04-16T08:15:16.773Z,17.50
2018-04-16T08:17:45.059Z,17.30
2018-04-16T08:20:13.308Z,17.20
2018-04-16T08:22:41.608Z,17.30
2018-04-16T08:25:10.124Z,17.20
2018-04-16T08:27:38.457Z,17.30
2018-04-16T08:30:06.941Z,17.40
2018-04-16T08:32:35.160Z,17.50
2018-04-16T08:35:03.437Z,17.40
2018-04-16T08:37:31.692Z,17.50
2018-04-16T08:40:00.760Z,17.80
2018-04-16T08:42:29.069Z,17.80
2018-04-16T08:44:57.304Z,17.90
2018-04-16T08:47:26.337Z,18.10
2018-04-16T08:49:54.587Z,18.30
2018-04-16T08:52:23.785Z,18.10
2018-04-16T08:54:52.104Z,18.10
2018-04-16T08:57:20.468Z,18.40
2018-04-16T08:59:48.767Z,18.40
2018-04-16T09:02:17.772Z,18.40
2018-04-16T09:04:45.987Z,18.60
2018-04-16T09:07:14.266Z,18.70
2018-04-16T09:09:42.605Z,18.80
2018-04-16T09:12:10.844Z,18.90
2018-04-16T09:14:39.212Z,18.70
2018-04-16T09:17:07.575Z,18.40
2018-04-16T09:19:36.619Z,18.60
2018-04-16T09:22:04.890Z,18.40
2018-04-16T09:24:33.873Z,18.70
2018-04-16T09:27:02.156Z,18.60
2018-04-16T09:29:30.426Z,18.60
2018-04-16T09:31:58.677Z,18.70
2018-04-16T09:34:26.912Z,18.70
2018-04-16T09:36:55.312Z,18.70
2018-04-16T09:39:23.652Z,18.90
2018-04-16T09:41:51.929Z,18.80
2018-04-16T09:44:20.949Z,19.00
2018-04-16T09:46:51.015Z,18.80
2018-04-16T09:49:19.245Z,19.00
2018-04-16T09:51:47.731Z,19.00
2018-04-16T09:54:16.732Z,19.10
2018-04-16T09:56:44.977Z,18.90
2018-04-16T09:59:14.009Z,18.80
2018-04-16T10:01:42.745Z,18.90
2018-04-16T10:04:10.999Z,18.70
2018-04-16T10:06:39.260Z,19.00
2018-04-16T10:09:07.697Z,18.90
2018-04-16T10:11:36.804Z,19.10
2018-04-16T10:14:05.817Z,19.20
2018-04-16T10:16:34.824Z,19.00
2018-04-16T10:19:03.081Z,19.30
2018-04-16T10:21:31.329Z,19.50
2018-04-16T10:23:59.611Z,19.40
2018-04-16T10:26:27.874Z,19.50
2018-04-16T10:28:56.303Z,19.70
2018-04-16T10:31:24.724Z,19.90
2018-04-16T10:33:52.994Z,19.80
2018-04-16T10:36:21.233Z,20.00
2018-04-16T10:38:49.514Z,19.90
2018-04-16T10:41:17.802Z,20.00
2018-04-16T10:43:46.040Z,20.00
2018-04-16T10:46:14.275Z,20.00
2018-04-16T10:48:42.578Z,19.80
2018-04-16T10:51:10.985Z,19.50
2018-04-16T10:53:39.333Z,19.90
2018-04-16T10:56:08.403Z,19.60
2018-04-16T10:58:36.680Z,20.00
2018-04-16T11:01:05.029Z,20.10
2018-04-16T11:03:35.395Z,19.90
2018-04-16T11:06:03.637Z,19.90
2018-04-16T11:08:31.881Z,19.90
2018-04-16T11:11:00.917Z,20.10
2018-04-16T11:13:29.274Z,20.20
2018-04-16T11:15:57.515Z,19.90
2018-04-16T11:18:25.760Z,20.20
2018-04-16T11:20:54.038Z,20.10
2018-04-16T11:23:22.295Z,19.70
2018-04-16T11:25:50.560Z,19.90
2018-04-16T11:28:19.593Z,20.30
2018-04-16T11:30:47.862Z,20.00
2018-04-16T11:33:16.915Z,20.10
2018-04-16T11:35:45.146Z,20.00
2018-04-16T11:38:13.396Z,20.00
2018-04-16T11:40:42.431Z,20.00
2018-04-16T11:43:10.679Z,20.10
2018-04-16T11:45:38.925Z,20.10
2018-04-16T11:48:07.235Z,20.30
2018-04-16T11:50:36.343Z,19.80
2018-04-16T11:53:04.696Z,20.20
2018-04-16T11:55:32.940Z,20.30
2018-04-16T11:58:01.206Z,20.20
2018-04-16T12:00:29.481Z,20.20
2018-04-16T12:02:57.740Z,19.70
2018-04-16T12:05:25.984Z,20.10
2018-04-16T12:07:54.283Z,20.00
2018-04-16T12:10:27.243Z,20.00
2018-04-16T12:12:55.544Z,20.00
2018-04-16T12:15:24.707Z,20.20
2018-04-16T12:17:53.002Z,20.10
2018-04-16T12:20:21.277Z,19.90
2018-04-16T12:22:50.880Z,20.40
2018-04-16T12:25:19.865Z,20.20
2018-04-16T12:27:48.148Z,19.90
2018-04-16T12:30:17.196Z,20.50
2018-04-16T12:32:46.271Z,20.10
2018-04-16T12:35:14.516Z,20.30
2018-04-16T12:37:43.532Z,20.60
2018-04-16T12:40:11.967Z,20.10
2018-04-16T12:42:40.336Z,20.30
2018-04-16T12:45:08.611Z,20.20
2018-04-16T12:47:36.858Z,20.70
2018-04-16T12:50:05.116Z,20.40
2018-04-16T12:52:33.429Z,20.70
2018-04-16T12:55:01.685Z,20.80
2018-04-16T12:57:29.939Z,20.70
2018-04-16T12:59:58.951Z,20.80
2018-04-16T13:02:28.111Z,20.90
2018-04-16T13:04:56.364Z,20.90
2018-04-16T13:07:24.682Z,20.90
2018-04-16T13:09:52.904Z,20.70
2018-04-16T13:12:21.198Z,20.70
2018-04-16T13:14:49.440Z,20.70
2018-04-16T13:17:18.464Z,20.40
2018-04-16T13:19:48.839Z,20.50
2018-04-16T13:22:17.089Z,20.60
2018-04-16T13:24:45.326Z,20.40
2018-04-16T13:27:14.380Z,20.50
2018-04-16T13:29:42.682Z,20.40
2018-04-16T13:32:11.060Z,20.20
2018-04-16T13:34:39.297Z,20.60
2018-04-16T13:37:07.578Z,20.20
2018-04-16T13:39:35.899Z,20.50
2018-04-16T13:42:04.164Z,20.50
2018-04-16T13:44:32.453Z,20.60
2018-04-16T13:47:03.255Z,20.70
2018-04-16T13:49:32.351Z,20.70
2018-04-16T13:52:00.716Z,20.40
2018-04-16T13:54:29.725Z,20.50
2018-04-16T13:56:58.002Z,20.30
2018-04-16T13:59:26.286Z,20.40
2018-04-16T14:01:54.767Z,20.40
2018-04-16T14:04:22.997Z,20.90
2018-04-16T14:06:51.283Z,20.60
2018-04-16T14:09:19.504Z,20.60
2018-04-16T14:11:48.702Z,20.70
2018-04-16T14:14:17.742Z,20.80
2018-04-16T14:16:46.186Z,20.60
2018-04-16T14:19:15.762Z,20.90
2018-04-16T14:21:43.984Z,20.90
2018-04-16T14:24:12.478Z,20.90
2018-04-16T14:26:40.660Z,20.90
2018-04-16T14:29:08.901Z,20.90
2018-04-16T14:31:37.179Z,20.70
2018-04-16T14:34:05.507Z,20.80
2018-04-16T14:36:33.754Z,20.90
2018-04-16T14:39:03.025Z,20.50
2018-04-16T14:41:31.248Z,20.90
2018-04-16T14:43:59.502Z,20.60
2018-04-16T14:46:27.772Z,20.70
2018-04-16T14:48:56.027Z,20.60
2018-04-16T14:51:24.306Z,20.40
2018-04-16T14:53:52.613Z,20.60
2018-04-16T14:56:20.972Z,20.90
2018-04-16T14:58:49.217Z,20.80
2018-04-16T15:01:17.479Z,20.70
2018-04-16T15:03:46.500Z,20.80
2018-04-16T15:06:14.840Z,20.70
2018-04-16T15:08:43.452Z,20.80
2018-04-16T15:11:12.482Z,20.80
2018-04-16T15:13:40.869Z,20.80
2018-04-16T15:16:09.144Z,20.80
2018-04-16T15:18:37.461Z,20.60
2018-04-16T15:21:05.747Z,20.50
2018-04-16T15:23:34.004Z,20.80
2018-04-16T15:26:02.233Z,20.90
2018-04-16T15:28:31.292Z,20.50
2018-04-16T15:30:59.535Z,20.80
2018-04-16T15:33:27.920Z,20.50
2018-04-16T15:35:56.168Z,20.50
2018-04-16T15:38:25.199Z,20.30
2018-04-16T15:40:53.452Z,20.30
2018-04-16T15:43:22.593Z,20.40
2018-04-16T15:45:51.408Z,20.60
2018-04-16T15:48:19.680Z,20.60
2018-04-16T15:50:47.938Z,20.90
2018-04-16T15:53:16.188Z,20.90
2018-04-16T15:55:45.226Z,20.60
2018-04-16T15:58:13.582Z,20.40
2018-04-16T16:00:42.458Z,20.60
2018-04-16T16:03:10.749Z,20.40
2018-04-16T16:05:39.820Z,20.60
2018-04-16T16:08:08.067Z,20.50
2018-04-16T16:10:36.310Z,20.80
2018-04-16T16:13:04.559Z,20.50
2018-04-16T16:15:33.404Z,20.70
2018-04-16T16:18:01.704Z,20.40
2018-04-16T16:20:29.975Z,20.40
2018-04-16T16:22:58.697Z,20.60
2018-04-16T16:25:27.083Z,20.70
2018-04-16T16:27:55.340Z,20.50
2018-04-16T16:30:23.580Z,20.50
2018-04-16T16:32:51.872Z,20.50
2018-04-16T16:35:20.092Z,20.60
2018-04-16T16:37:48.388Z,20.30
2018-04-16T16:40:16.883Z,20.30
2018-04-16T16:42:45.177Z,20.10
2018-04-16T16:45:14.248Z,20.70
2018-04-16T16:47:42.594Z,20.60
2018-04-16T16:50:10.866Z,20.90
2018-04-16T16:52:39.129Z,20.20
2018-04-16T16:55:08.399Z,20.20
2018-04-16T16:57:36.625Z,20.40
2018-04-16T17:00:05.884Z,19.90
2018-04-16T17:02:34.272Z,20.10
2018-04-16T17:05:02.511Z,20.00
2018-04-16T17:07:30.748Z,20.10
2018-04-16T17:09:59.788Z,19.90
2018-04-16T17:12:28.025Z,19.70
2018-04-16T17:14:57.163Z,19.90
2018-04-16T17:17:26.340Z,19.80
2018-04-16T17:19:54.643Z,19.90
2018-04-16T17:22:24.399Z,20.00
2018-04-16T17:24:52.653Z,20.00
2018-04-16T17:27:20.931Z,20.00
2018-04-16T17:29:49.199Z,20.00
2018-04-16T17:32:17.457Z,19.90
2018-04-16T17:34:45.736Z,20.00
2018-04-16T17:37:14.725Z,19.40
2018-04-16T17:39:43.844Z,19.20
2018-04-16T17:42:12.601Z,19.40
2018-04-16T17:44:40.820Z,19.50
2018-04-16T17:47:09.123Z,19.80
2018-04-16T17:49:37.367Z,19.40
2018-04-16T17:52:06.422Z,20.00
2018-04-16T17:54:34.672Z,19.90
2018-04-16T17:57:02.944Z,19.90
2018-04-16T17:59:31.202Z,20.00
2018-04-16T18:02:00.173Z,20.10
2018-04-16T18:04:28.438Z,20.00
2018-04-16T18:06:56.702Z,20.10
2018-04-16T18:09:24.992Z,19.80
2018-04-16T18:11:53.232Z,19.90
2018-04-16T18:14:21.488Z,19.50
2018-04-16T18:16:50.533Z,19.50
2018-04-16T18:19:18.806Z,19.40
2018-04-16T18:21:47.062Z,19.60
2018-04-16T18:24:15.375Z,19.70
2018-04-16T18:26:43.609Z,19.50
2018-04-16T18:29:12.615Z,20.00
2018-04-16T18:31:41.681Z,20.00
2018-04-16T18:34:10.060Z,20.10
2018-04-16T18:36:38.306Z,19.80
2018-04-16T18:39:07.444Z,19.40
2018-04-16T18:41:35.679Z,19.60
2018-04-16T18:44:04.072Z,19.50
2018-04-16T18:46:32.918Z,19.30
2018-04-16T18:49:01.998Z,19.00
2018-04-16T18:51:30.283Z,18.90
2018-04-16T18:53:58.527Z,18.70
2018-04-16T18:56:27.596Z,18.80
2018-04-16T18:58:55.869Z,18.80
2018-04-16T19:01:24.890Z,18.70
2018-04-16T19:03:53.187Z,18.90
2018-04-16T19:06:21.470Z,19.10
2018-04-16T19:08:49.736Z,19.00
2018-04-16T19:11:18.063Z,19.00
2018-04-16T19:13:47.173Z,19.10
2018-04-16T19:16:15.479Z,18.90
2018-04-16T19:18:44.492Z,19.00
2018-04-16T19:21:18.512Z,18.70
2018-04-16T19:23:47.195Z,18.90
2018-04-16T19:26:15.485Z,18.50
2018-04-16T19:28:43.759Z,18.60
2018-04-16T19:31:12.045Z,18.80
2018-04-16T19:33:45.946Z,18.60
2018-04-16T19:36:14.224Z,18.90
2018-04-16T19:38:42.496Z,18.90
2018-04-16T19:41:10.772Z,19.20
2018-04-16T19:43:39.788Z,19.50
2018-04-16T19:46:08.033Z,19.20
2018-04-16T19:48:42.838Z,19.40
2018-04-16T19:51:11.129Z,19.60
2018-04-16T19:53:41.038Z,19.30
2018-04-16T19:56:15.122Z,19.60
2018-04-16T19:58:43.416Z,19.30
2018-04-16T20:01:11.692Z,19.50
2018-04-16T20:03:45.731Z,19.00
2018-04-16T20:06:13.966Z,19.40
2018-04-16T20:08:42.204Z,19.10
2018-04-16T20:11:12.205Z,18.80
2018-04-16T20:13:41.996Z,18.70
2018-04-16T20:16:10.290Z,19.10
2018-04-16T20:18:38.547Z,18.90
2018-04-16T20:21:06.830Z,18.50
2018-04-16T20:23:35.902Z,18.40
2018-04-16T20:26:04.955Z,18.10
2018-04-16T20:28:33.212Z,18.20
2018-04-16T20:31:01.463Z,18.20
2018-04-16T20:33:30.542Z,18.10
2018-04-16T20:35:59.593Z,17.90
2018-04-16T20:38:27.949Z,17.80
2018-04-16T20:40:56.206Z,18.00
2018-04-16T20:43:26.207Z,17.70
2018-04-16T20:45:54.444Z,18.00
2018-04-16T20:48:22.720Z,17.90
2018-04-16T20:50:51.116Z,17.80
2018-04-16T20:53:19.316Z,17.60
2018-04-16T20:55:47.674Z,17.80
2018-04-16T20:58:15.986Z,17.60
2018-04-16T21:00:44.249Z,17.60
2018-04-16T21:03:12.693Z,17.40
2018-04-16T21:05:40.927Z,17.60
2018-04-16T21:08:09.189Z,17.50
2018-04-16T21:10:39.221Z,17.60
2018-04-16T21:13:07.493Z,17.70
2018-04-16T21:15:35.746Z,17.40
2018-04-16T21:18:04.028Z,17.60
2018-04-16T21:20:32.360Z,17.40
2018-04-16T21:23:01.421Z,17.30
2018-04-16T21:25:29.843Z,17.40
2018-04-16T21:27:58.944Z,17.30
2018-04-16T21:30:27.985Z,17.30
2018-04-16T21:32:57.142Z,17.10
2018-04-16T21:35:25.424Z,17.20
2018-04-16T21:37:55.156Z,17.20
2018-04-16T21:40:24.226Z,16.90
2018-04-16T21:42:52.506Z,17.00
2018-04-16T21:45:20.754Z,16.80
2018-04-16T21:47:49.066Z,16.60
2018-04-16T21:50:17.344Z,16.90
2018-04-16T21:52:45.601Z,16.80
2018-04-16T21:55:13.855Z,16.50
2018-04-16T21:57:42.821Z,16.50
2018-04-16T22:00:12.057Z,16.60
2018-04-16T22:02:40.409Z,16.60
2018-04-16T22:05:09.456Z,16.30
2018-04-16T22:07:37.875Z,16.30
2018-04-16T22:10:06.911Z,16.40
2018-04-16T22:12:35.226Z,16.20
2018-04-16T22:15:03.485Z,16.10
2018-04-16T22:17:31.765Z,16.10
2018-04-16T22:20:00.015Z,16.20
2018-04-16T22:22:29.091Z,16.00
2018-04-16T22:24:57.333Z,16.30
2018-04-16T22:27:28.724Z,16.30
2018-04-16T22:29:56.971Z,15.90
2018-04-16T22:32:25.257Z,16.00
2018-04-16T22:34:53.493Z,16.10
2018-04-16T22:37:22.689Z,16.00
2018-04-16T22:39:51.719Z,15.80
2018-04-16T22:42:20.002Z,15.80
2018-04-16T22:44:48.274Z,15.80
2018-04-16T22:47:16.512Z,15.60
2018-04-16T22:49:44.944Z,15.70
2018-04-16T22:52:13.193Z,15.40
2018-04-16T22:54:43.111Z,15.70
2018-04-16T22:57:12.132Z,15.60
2018-04-16T22:59:40.423Z,15.60
2018-04-16T23:02:08.661Z,15.60
2018-04-16T23:04:37.681Z,15.50
2018-04-16T23:07:05.926Z,15.40
2018-04-16T23:09:34.160Z,15.70
2018-04-16T23:12:02.908Z,15.50
2018-04-16T23:14:32.002Z,15.30
2018-04-16T23:17:00.348Z,15.60
2018-04-16T23:19:28.640Z,15.20
2018-04-16T23:21:56.903Z,15.40
2018-04-16T23:24:25.170Z,15.30
2018-04-16T23:26:54.347Z,15.10
2018-04-16T23:29:23.470Z,15.10
2018-04-16T23:31:51.721Z,15.10
2018-04-16T23:34:21.764Z,15.20
2018-04-16T23:36:50.016Z,15.00
2018-04-16T23:39:19.061Z,15.00
2018-04-16T23:41:48.809Z,15.30
2018-04-16T23:44:17.053Z,15.20
2018-04-16T23:46:45.308Z,15.10
2018-04-16T23:49:13.572Z,15.00
2018-04-16T23:51:44.299Z,14.80
2018-04-16T23:54:12.545Z,14.80
2018-04-16T23:56:40.816Z,14.80
2018-04-16T23:59:09.060Z,14.80
